createdAt,value
2023-05-18T00:00:16.536Z,9.87
2023-05-18T00:02:43.368Z,14.40
2023-05-18T00:05:12.776Z,11.77
2023-05-18T00:07:39.535Z,13.23
2023-05-18T00:10:06.718Z,12.20
2023-05-18T00:12:33.388Z,10.33
2023-05-18T00:15:00.125Z,9.67
2023-05-18T00:17:26.745Z,10.53
2023-05-18T00:19:53.627Z,10.17
2023-05-18T00:22:20.314Z,12.10
2023-05-18T00:24:47.572Z,12.30
2023-05-18T00:27:14.213Z,10.53
2023-05-18T00:29:41.055Z,12.13
2023-05-18T00:32:07.783Z,10.13
2023-05-18T00:34:34.466Z,14.87
2023-05-18T00:37:01.220Z,10.60
2023-05-18T00:39:27.852Z,14.47
2023-05-18T00:41:54.476Z,12.77
2023-05-18T00:44:21.240Z,10.43
2023-05-18T00:46:47.793Z,15.23
2023-05-18T00:49:14.468Z,12.03
2023-05-18T00:51:41.327Z,15.57
2023-05-18T00:54:08.406Z,16.27
2023-05-18T00:56:35.473Z,12.23
2023-05-18T00:59:03.267Z,13.47
2023-05-18T01:01:30.838Z,13.30
2023-05-18T01:03:57.881Z,10.90
2023-05-18T01:06:27.097Z,12.13
2023-05-18T01:08:54.096Z,13.77
2023-05-18T01:11:32.962Z,12.00
2023-05-18T01:14:05.446Z,10.63
2023-05-18T01:16:38.242Z,12.83
2023-05-18T01:19:24.319Z,12.10
2023-05-18T01:21:58.552Z,12.60
2023-05-18T01:24:36.093Z,12.80
2023-05-18T01:27:05.668Z,12.70
2023-05-18T01:29:32.844Z,11.37
2023-05-18T01:31:59.391Z,13.47
2023-05-18T01:34:25.914Z,11.07
2023-05-18T01:36:52.668Z,14.40
2023-05-18T01:39:19.360Z,12.80
2023-05-18T01:41:55.332Z,10.80
2023-05-18T01:44:29.097Z,12.17
2023-05-18T01:46:55.783Z,11.60
2023-05-18T01:49:22.327Z,12.33
2023-05-18T01:51:50.082Z,12.43
2023-05-18T01:54:17.970Z,15.27
2023-05-18T01:56:45.062Z,9.87
2023-05-18T01:59:12.077Z,11.40
2023-05-18T02:01:38.756Z,13.33
2023-05-18T02:04:09.553Z,13.00
2023-05-18T02:06:37.098Z,9.10
2023-05-18T02:09:07.143Z,15.23
2023-05-18T02:14:55.649Z,13.03
2023-05-18T02:17:22.319Z,11.80
2023-05-18T02:19:48.951Z,10.77
2023-05-18T02:22:16.011Z,11.40
2023-05-18T02:24:42.561Z,17.20
2023-05-18T02:27:09.106Z,12.53
2023-05-18T02:29:35.675Z,12.57
2023-05-18T02:32:02.240Z,11.77
2023-05-18T02:34:32.960Z,13.13
2023-05-18T02:37:04.158Z,13.83
2023-05-18T02:39:31.204Z,12.33
2023-05-18T02:41:57.865Z,14.30
2023-05-18T02:44:24.487Z,15.47
2023-05-18T02:46:51.173Z,13.23
2023-05-18T02:49:17.769Z,13.07
2023-05-18T02:51:44.295Z,14.53
2023-05-18T02:54:10.878Z,10.93
2023-05-18T02:56:38.548Z,13.43
2023-05-18T02:59:08.042Z,11.37
2023-05-18T03:01:37.326Z,12.37
2023-05-18T03:04:03.968Z,10.47
2023-05-18T03:06:30.560Z,11.30
2023-05-18T03:08:57.300Z,13.97
2023-05-18T03:11:24.221Z,8.90
2023-05-18T03:13:50.966Z,11.77
2023-05-18T03:16:17.652Z,12.17
2023-05-18T03:18:44.521Z,14.23
2023-05-18T03:21:13.669Z,9.70
2023-05-18T03:23:40.790Z,11.63
2023-05-18T03:26:11.498Z,12.50
2023-05-18T03:28:38.786Z,9.57
2023-05-18T03:31:05.697Z,10.57
2023-05-18T03:33:32.356Z,10.57
2023-05-18T03:36:02.551Z,13.37
2023-05-18T03:38:29.210Z,11.73
2023-05-18T03:40:55.737Z,13.67
2023-05-18T03:43:25.414Z,13.00
2023-05-18T03:45:52.406Z,13.70
2023-05-18T03:48:18.961Z,10.23
2023-05-18T03:50:45.677Z,13.47
2023-05-18T03:53:13.405Z,12.03
2023-05-18T03:55:40.033Z,13.70
2023-05-18T03:58:06.575Z,14.00
2023-05-18T04:00:33.084Z,12.40
2023-05-18T04:03:00.792Z,13.50
2023-05-18T04:05:28.537Z,12.83
2023-05-18T04:07:57.550Z,12.33
2023-05-18T04:10:24.142Z,12.07
2023-05-18T04:12:50.996Z,12.17
2023-05-18T04:15:38.115Z,12.37
2023-05-18T04:18:06.640Z,11.07
2023-05-18T04:20:46.300Z,11.40
2023-05-18T04:23:38.919Z,11.33
2023-05-18T04:26:09.172Z,15.37
2023-05-18T04:28:43.519Z,14.83
2023-05-18T04:31:14.526Z,10.77
2023-05-18T04:33:41.655Z,13.73
2023-05-18T04:36:09.636Z,11.93
2023-05-18T04:38:36.259Z,13.80
2023-05-18T04:41:06.661Z,13.07
2023-05-18T04:43:35.432Z,11.23
2023-05-18T04:46:02.063Z,10.07
2023-05-18T04:48:29.445Z,11.83
2023-05-18T04:50:56.257Z,14.00
2023-05-18T04:53:22.872Z,12.03
2023-05-18T04:55:50.208Z,8.83
2023-05-18T04:58:16.814Z,12.00
2023-05-18T05:00:43.752Z,13.77
2023-05-18T05:03:10.748Z,12.37
2023-05-18T05:05:37.361Z,14.50
2023-05-18T05:08:06.246Z,10.20
2023-05-18T05:10:32.868Z,13.13
2023-05-18T05:12:59.418Z,12.00
2023-05-18T05:15:26.094Z,11.33
2023-05-18T05:17:52.984Z,16.13
2023-05-18T05:20:19.701Z,13.63
2023-05-18T05:22:46.296Z,12.03
2023-05-18T05:25:12.946Z,12.50
2023-05-18T05:27:39.667Z,10.27
2023-05-18T05:30:06.731Z,13.17
2023-05-18T05:32:33.337Z,12.73
2023-05-18T05:34:59.936Z,17.20
2023-05-18T05:37:26.515Z,14.17
2023-05-18T05:39:53.173Z,13.33
2023-05-18T05:42:19.838Z,10.63
2023-05-18T05:44:46.452Z,11.57
2023-05-18T05:47:15.436Z,10.33
2023-05-18T05:49:42.099Z,12.77
2023-05-18T05:52:08.823Z,12.70
2023-05-18T05:54:35.429Z,10.47
2023-05-18T05:57:01.999Z,13.00
2023-05-18T05:59:28.656Z,8.53
2023-05-18T06:01:55.182Z,5.77
2023-05-18T06:04:21.886Z,9.70
2023-05-18T06:06:48.529Z,9.90
2023-05-18T06:09:16.086Z,13.37
2023-05-18T06:11:42.695Z,9.70
2023-05-18T06:14:09.288Z,10.03
2023-05-18T06:16:35.976Z,7.50
2023-05-18T06:19:02.592Z,9.13
2023-05-18T06:21:29.242Z,11.37
2023-05-18T06:23:56.720Z,10.80
2023-05-18T06:26:23.389Z,10.13
2023-05-18T06:28:50.186Z,7.87
2023-05-18T06:31:19.075Z,7.97
2023-05-18T06:33:45.889Z,6.77
2023-05-18T06:36:12.472Z,6.30
2023-05-18T06:38:39.000Z,5.87
2023-05-18T06:41:05.591Z,7.23
2023-05-18T06:43:32.138Z,10.47
2023-05-18T06:45:58.812Z,8.90
2023-05-18T06:48:27.958Z,6.90
2023-05-18T06:50:54.709Z,9.83
2023-05-18T06:53:22.649Z,11.10
2023-05-18T06:55:49.343Z,8.50
2023-05-18T06:58:15.976Z,10.77
2023-05-18T07:00:43.000Z,8.57
2023-05-18T07:03:09.612Z,6.63
2023-05-18T07:05:39.236Z,7.30
2023-05-18T07:08:07.347Z,11.93
2023-05-18T07:10:35.512Z,7.43
2023-05-18T07:13:02.417Z,8.80
2023-05-18T07:15:29.438Z,4.73
2023-05-18T07:17:56.492Z,7.13
2023-05-18T07:20:25.780Z,8.53
2023-05-18T07:22:55.066Z,8.83
2023-05-18T07:25:22.228Z,8.10
2023-05-18T07:27:48.902Z,6.37
2023-05-18T07:30:15.734Z,7.97
2023-05-18T07:32:45.307Z,6.90
2023-05-18T07:35:12.308Z,7.23
2023-05-18T07:37:38.988Z,10.13
2023-05-18T07:40:05.938Z,7.60
2023-05-18T07:42:34.027Z,7.33
2023-05-18T07:45:00.663Z,6.57
2023-05-18T07:47:27.392Z,6.53
2023-05-18T07:49:54.048Z,5.57
2023-05-18T07:52:20.627Z,7.57
2023-05-18T07:54:47.435Z,10.30
2023-05-18T07:57:14.249Z,6.43
2023-05-18T07:59:40.879Z,11.13
2023-05-18T08:02:07.715Z,5.77
2023-05-18T08:04:34.386Z,7.17
2023-05-18T08:07:02.102Z,8.10
2023-05-18T08:09:28.755Z,8.73
2023-05-18T08:11:55.372Z,4.83
2023-05-18T08:14:21.939Z,8.37
2023-05-18T08:16:48.758Z,7.20
2023-05-18T08:19:15.473Z,8.90
2023-05-18T08:21:42.192Z,10.90
2023-05-18T08:24:09.520Z,7.83
2023-05-18T08:26:36.336Z,9.77
2023-05-18T08:29:09.730Z,6.03
2023-05-18T08:31:37.208Z,9.20
2023-05-18T08:34:07.169Z,7.53
2023-05-18T08:36:36.622Z,9.93
2023-05-18T08:39:04.502Z,7.63
2023-05-18T08:41:43.877Z,7.80
2023-05-18T08:44:13.933Z,10.33
2023-05-18T08:46:42.667Z,10.17
2023-05-18T08:49:10.266Z,7.43
2023-05-18T08:51:37.403Z,7.33
2023-05-18T08:54:06.186Z,7.97
2023-05-18T08:56:36.161Z,6.90
2023-05-18T08:59:04.920Z,10.37
2023-05-18T09:01:32.001Z,5.87
2023-05-18T09:03:59.800Z,5.43
2023-05-18T09:06:28.490Z,8.60
2023-05-18T09:08:57.289Z,7.17
2023-05-18T09:11:25.126Z,8.70
2023-05-18T09:13:52.110Z,8.30
2023-05-18T09:16:19.009Z,11.13
2023-05-18T09:18:46.026Z,8.20
2023-05-18T09:21:12.860Z,8.70
2023-05-18T09:23:41.537Z,5.90
2023-05-18T09:26:11.472Z,5.13
2023-05-18T09:28:45.481Z,6.83
2023-05-18T09:31:17.498Z,7.87
2023-05-18T09:33:45.052Z,5.47
2023-05-18T09:36:15.541Z,7.77
2023-05-18T09:38:46.832Z,6.40
2023-05-18T09:41:17.624Z,9.77
2023-05-18T09:43:53.396Z,8.43
2023-05-18T09:46:21.058Z,9.13
2023-05-18T09:48:50.552Z,8.07
2023-05-18T09:51:18.223Z,6.40
2023-05-18T09:53:56.210Z,7.73
2023-05-18T09:56:24.147Z,6.90
2023-05-18T09:58:50.808Z,7.40
2023-05-18T10:01:17.505Z,8.17
2023-05-18T10:03:45.828Z,8.77
2023-05-18T10:06:15.423Z,6.57
2023-05-18T10:08:41.984Z,5.47
2023-05-18T10:11:09.104Z,8.63
2023-05-18T10:13:35.842Z,6.43
2023-05-18T10:16:03.590Z,6.80
2023-05-18T10:18:31.669Z,7.63
2023-05-18T10:21:00.352Z,6.93
2023-05-18T10:23:27.922Z,7.80
2023-05-18T10:25:54.829Z,9.07
2023-05-18T10:28:26.086Z,8.57
2023-05-18T10:30:57.157Z,8.37
2023-05-18T10:33:29.589Z,6.77
2023-05-18T10:35:57.266Z,7.90
2023-05-18T10:38:27.641Z,6.87
2023-05-18T10:40:55.466Z,9.17
2023-05-18T10:43:27.394Z,7.20
2023-05-18T10:45:55.604Z,8.10
2023-05-18T10:48:23.076Z,6.47
2023-05-18T10:50:50.856Z,8.07
2023-05-18T10:53:18.804Z,7.03
2023-05-18T10:55:45.817Z,7.30
2023-05-18T10:58:14.390Z,9.77
2023-05-18T11:00:42.633Z,5.33
2023-05-18T11:03:13.687Z,6.47
2023-05-18T11:05:41.865Z,7.93
2023-05-18T11:08:08.856Z,6.90
2023-05-18T11:10:38.785Z,8.80
2023-05-18T11:13:07.237Z,7.63
2023-05-18T11:15:52.697Z,4.77
2023-05-18T11:18:19.515Z,8.90
2023-05-18T11:20:46.614Z,7.93
2023-05-18T11:23:18.660Z,5.97
2023-05-18T11:25:45.438Z,10.20
2023-05-18T11:28:13.597Z,8.60
2023-05-18T11:30:45.303Z,6.10
2023-05-18T11:33:13.137Z,8.10
2023-05-18T11:35:58.109Z,8.13
2023-05-18T11:38:45.901Z,5.33
2023-05-18T11:41:29.344Z,9.90
2023-05-18T11:44:10.119Z,6.20
2023-05-18T11:46:37.210Z,5.50
2023-05-18T11:49:04.786Z,8.30
2023-05-18T11:51:32.448Z,6.37
2023-05-18T11:54:03.210Z,6.73
2023-05-18T11:56:34.448Z,10.40
2023-05-18T11:59:14.448Z,6.13
2023-05-18T12:01:41.534Z,7.60
2023-05-18T12:04:09.074Z,5.83
2023-05-18T12:06:37.669Z,6.87
2023-05-18T12:09:05.826Z,5.87
2023-05-18T12:11:33.185Z,7.80
2023-05-18T12:13:59.946Z,7.13
2023-05-18T12:16:26.984Z,9.97
2023-05-18T12:18:53.655Z,9.57
2023-05-18T12:21:24.921Z,6.00
2023-05-18T12:23:58.389Z,6.27
2023-05-18T12:26:26.118Z,7.27
2023-05-18T12:28:53.417Z,9.53
2023-05-18T12:31:20.042Z,6.67
2023-05-18T12:33:46.696Z,6.53
2023-05-18T12:36:14.021Z,6.03
2023-05-18T12:38:40.824Z,5.93
2023-05-18T12:41:07.462Z,6.87
2023-05-18T12:43:34.911Z,7.60
2023-05-18T12:46:02.112Z,7.37
2023-05-18T12:48:30.938Z,6.10
2023-05-18T12:50:57.589Z,6.37
2023-05-18T12:53:24.252Z,6.43
2023-05-18T12:55:58.548Z,5.83
2023-05-18T12:58:25.600Z,6.37
2023-05-18T13:00:53.550Z,6.40
2023-05-18T13:03:22.210Z,7.93
2023-05-18T13:06:02.224Z,5.43
2023-05-18T13:08:28.841Z,7.60
2023-05-18T13:13:28.347Z,6.93
2023-05-18T13:15:54.993Z,6.80
2023-05-18T13:18:21.710Z,6.07
2023-05-18T13:20:52.953Z,5.43
2023-05-18T13:23:39.226Z,7.10
2023-05-18T13:26:08.481Z,6.73
2023-05-18T13:28:36.136Z,6.53
2023-05-18T13:31:03.008Z,6.03
2023-05-18T13:33:29.610Z,6.83
2023-05-18T13:35:56.295Z,5.47
2023-05-18T13:38:22.966Z,8.13
2023-05-18T13:40:49.616Z,8.70
2023-05-18T13:43:16.344Z,6.90
2023-05-18T13:45:43.337Z,5.07
2023-05-18T13:48:10.998Z,7.77
2023-05-18T13:50:38.022Z,6.27
2023-05-18T13:53:04.646Z,7.23
2023-05-18T13:55:31.569Z,6.10
2023-05-18T13:57:58.505Z,5.60
2023-05-18T14:00:25.289Z,5.03
2023-05-18T14:02:53.336Z,5.37
2023-05-18T14:05:20.230Z,6.17
2023-05-18T14:07:46.943Z,5.67
2023-05-18T14:10:13.641Z,7.57
2023-05-18T14:12:42.551Z,7.30
2023-05-18T14:15:10.129Z,6.53
2023-05-18T14:17:36.783Z,7.20
2023-05-18T14:20:05.454Z,5.93
2023-05-18T14:22:32.387Z,6.23
2023-05-18T14:24:59.052Z,6.20
2023-05-18T14:27:25.659Z,5.10
2023-05-18T14:29:52.326Z,5.77
2023-05-18T14:32:21.112Z,6.53
2023-05-18T14:34:48.455Z,5.17
2023-05-18T14:37:15.021Z,8.43
2023-05-18T14:39:41.575Z,5.17
2023-05-18T14:42:08.258Z,6.43
2023-05-18T14:44:34.908Z,8.93
2023-05-18T14:47:01.810Z,5.10
2023-05-18T14:49:28.584Z,5.20
2023-05-18T14:51:55.197Z,8.30
2023-05-18T14:54:22.482Z,6.50
2023-05-18T14:56:49.124Z,4.80
2023-05-18T14:59:15.730Z,4.63
2023-05-18T15:01:42.335Z,7.87
2023-05-18T15:04:09.056Z,5.27
2023-05-18T15:06:37.478Z,5.27
2023-05-18T15:09:06.229Z,5.63
2023-05-18T15:11:32.848Z,4.93
2023-05-18T15:13:59.425Z,4.27
2023-05-18T15:16:26.025Z,8.63
2023-05-18T15:18:52.597Z,7.70
2023-05-18T15:21:19.199Z,5.03
2023-05-18T15:23:46.196Z,7.43
2023-05-18T15:26:12.940Z,3.30
2023-05-18T15:28:41.011Z,5.50
2023-05-18T15:31:09.195Z,6.47
2023-05-18T15:33:36.974Z,4.77
2023-05-18T15:36:03.833Z,4.30
2023-05-18T15:38:30.499Z,6.43
2023-05-18T15:40:57.202Z,7.43
2023-05-18T15:43:26.171Z,4.17
2023-05-18T15:45:52.834Z,4.47
2023-05-18T15:48:19.477Z,3.70
2023-05-18T15:50:46.536Z,4.67
2023-05-18T15:53:13.254Z,6.17
2023-05-18T15:55:39.952Z,5.77
2023-05-18T15:58:06.619Z,5.93
2023-05-18T16:00:33.357Z,5.40
2023-05-18T16:03:00.068Z,7.03
2023-05-18T16:05:26.964Z,3.73
2023-05-18T16:07:53.509Z,5.77
2023-05-18T16:10:20.164Z,4.47
2023-05-18T16:12:46.749Z,5.43
2023-05-18T16:15:13.363Z,8.13
2023-05-18T16:17:39.947Z,5.13
2023-05-18T16:20:06.922Z,6.13
2023-05-18T16:22:33.498Z,5.15
2023-05-18T16:25:00.172Z,5.53
2023-05-18T16:27:26.815Z,6.82
2023-05-18T16:29:53.456Z,7.15
2023-05-18T16:32:20.163Z,5.97
2023-05-18T16:34:46.717Z,8.00
2023-05-18T16:37:13.331Z,6.43
2023-05-18T16:39:39.894Z,6.50
2023-05-18T16:42:07.782Z,4.97
2023-05-18T16:44:36.163Z,4.57
2023-05-18T16:47:02.779Z,6.13
2023-05-18T16:49:29.390Z,6.93
2023-05-18T16:51:55.905Z,5.03
2023-05-18T16:54:22.546Z,4.40
2023-05-18T16:56:49.669Z,6.13
2023-05-18T16:59:16.279Z,5.63
2023-05-18T17:01:42.852Z,6.47
2023-05-18T17:04:09.753Z,5.43
2023-05-18T17:06:36.598Z,6.05
2023-05-18T17:09:04.906Z,5.05
2023-05-18T17:11:33.011Z,4.75
2023-05-18T17:14:01.490Z,6.97
2023-05-18T17:16:28.554Z,4.55
2023-05-18T17:18:56.220Z,4.13
2023-05-18T17:21:24.010Z,7.28
2023-05-18T17:23:50.736Z,4.63
2023-05-18T17:26:17.528Z,7.53
2023-05-18T17:28:44.230Z,4.20
2023-05-18T17:31:10.910Z,5.90
2023-05-18T17:33:37.529Z,4.90
2023-05-18T17:36:04.290Z,5.97
2023-05-18T17:38:30.996Z,5.80
2023-05-18T17:40:57.619Z,5.70
2023-05-18T17:43:24.178Z,4.63
2023-05-18T17:45:50.743Z,4.20
2023-05-18T17:48:17.303Z,6.30
2023-05-18T17:50:45.606Z,5.30
2023-05-18T17:53:12.392Z,5.67
2023-05-18T17:55:39.282Z,5.57
2023-05-18T17:58:06.012Z,6.13
2023-05-18T18:00:32.740Z,5.57
2023-05-18T18:02:59.582Z,5.17
2023-05-18T18:05:26.181Z,6.37
2023-05-18T18:07:54.187Z,6.10
2023-05-18T18:10:20.894Z,7.13
2023-05-18T18:12:47.565Z,4.60
2023-05-18T18:15:14.160Z,5.67
2023-05-18T18:17:40.734Z,5.40
2023-05-18T18:20:07.607Z,5.27
2023-05-18T18:22:35.841Z,4.73
2023-05-18T18:25:03.491Z,8.00
2023-05-18T18:27:30.157Z,4.77
2023-05-18T18:29:56.892Z,6.20
2023-05-18T18:32:23.518Z,5.27
2023-05-18T18:34:50.204Z,5.23
2023-05-18T18:37:17.189Z,4.97
2023-05-18T18:39:43.810Z,7.77
2023-05-18T18:42:10.724Z,7.07
2023-05-18T18:44:37.507Z,6.40
2023-05-18T18:47:04.366Z,5.93
2023-05-18T18:49:31.115Z,6.00
2023-05-18T18:51:58.946Z,8.23
2023-05-18T18:54:26.465Z,8.37
2023-05-18T18:56:53.199Z,6.80
2023-05-18T18:59:19.860Z,6.73
2023-05-18T19:01:46.807Z,7.33
2023-05-18T19:04:13.517Z,5.53
2023-05-18T19:06:40.185Z,5.77
2023-05-18T19:09:07.064Z,5.90
2023-05-18T19:11:33.606Z,6.07
2023-05-18T19:14:00.306Z,7.63
2023-05-18T19:16:27.272Z,4.73
2023-05-18T19:18:54.256Z,5.57
2023-05-18T19:21:21.533Z,7.67
2023-05-18T19:23:48.091Z,4.10
2023-05-18T19:26:14.695Z,6.33
2023-05-18T19:28:42.247Z,5.53
2023-05-18T19:31:11.828Z,5.60
2023-05-18T19:33:38.456Z,7.03
2023-05-18T19:36:05.046Z,5.83
2023-05-18T19:38:31.587Z,6.47
2023-05-18T19:40:58.335Z,7.03
2023-05-18T19:43:24.876Z,4.90
2023-05-18T19:45:51.751Z,5.30
2023-05-18T19:48:18.568Z,5.43
2023-05-18T19:50:45.166Z,8.40
2023-05-18T19:53:12.253Z,6.57
2023-05-18T19:55:38.902Z,6.17
2023-05-18T19:58:05.540Z,8.00
2023-05-18T20:00:33.372Z,6.43
2023-05-18T20:03:03.276Z,6.90
2023-05-18T20:05:30.246Z,4.57
2023-05-18T20:07:58.239Z,8.13
2023-05-18T20:10:25.268Z,6.00
2023-05-18T20:12:52.030Z,6.73
2023-05-18T20:15:19.676Z,8.73
2023-05-18T20:17:46.602Z,5.70
2023-05-18T20:20:13.246Z,4.50
2023-05-18T20:22:40.126Z,6.43
2023-05-18T20:25:07.074Z,8.23
2023-05-18T20:27:33.675Z,9.13
2023-05-18T20:30:00.674Z,8.90
2023-05-18T20:32:27.354Z,10.83
2023-05-18T20:34:53.891Z,8.20
2023-05-18T20:37:20.585Z,4.63
2023-05-18T20:39:50.915Z,8.00
2023-05-18T20:42:22.002Z,7.37
2023-05-18T20:44:51.286Z,5.37
2023-05-18T20:47:21.077Z,6.80
2023-05-18T20:49:48.095Z,10.33
2023-05-18T20:52:14.786Z,9.27
2023-05-18T20:54:41.494Z,7.67
2023-05-18T20:57:08.255Z,6.53
2023-05-18T20:59:34.857Z,7.97
2023-05-18T21:02:01.510Z,6.37
2023-05-18T21:04:28.542Z,6.20
2023-05-18T21:06:55.076Z,7.60
2023-05-18T21:09:21.636Z,10.93
2023-05-18T21:11:48.720Z,8.80
2023-05-18T21:14:15.996Z,7.43
2023-05-18T21:16:42.837Z,7.20
2023-05-18T21:19:09.508Z,7.23
2023-05-18T21:21:36.144Z,10.70
2023-05-18T21:24:02.725Z,9.10
2023-05-18T21:26:29.326Z,5.47
2023-05-18T21:28:55.868Z,6.73
2023-05-18T21:31:22.478Z,8.00
2023-05-18T21:33:49.206Z,5.93
2023-05-18T21:36:15.878Z,9.07
2023-05-18T21:38:42.511Z,7.97
2023-05-18T21:41:09.160Z,5.20
2023-05-18T21:43:35.812Z,6.70
2023-05-18T21:46:02.472Z,8.27
2023-05-18T21:48:29.082Z,9.13
2023-05-18T21:50:55.779Z,5.90
2023-05-18T21:53:22.342Z,5.47
2023-05-18T21:55:48.965Z,6.27
2023-05-18T21:58:15.579Z,7.60
2023-05-18T22:00:42.333Z,11.13
2023-05-18T22:03:09.061Z,9.97
2023-05-18T22:05:35.891Z,9.07
2023-05-18T22:08:02.475Z,8.13
2023-05-18T22:10:31.339Z,7.87
2023-05-18T22:12:58.202Z,7.10
2023-05-18T22:15:24.793Z,6.73
2023-05-18T22:17:51.435Z,5.40
2023-05-18T22:20:18.061Z,6.40
2023-05-18T22:22:44.756Z,5.60
2023-05-18T22:25:11.398Z,4.57
2023-05-18T22:27:38.705Z,7.53
2023-05-18T22:30:06.397Z,6.80
2023-05-18T22:32:33.138Z,9.43
2023-05-18T22:35:00.781Z,8.80
2023-05-18T22:37:27.422Z,4.23
2023-05-18T22:39:53.971Z,10.47
2023-05-18T22:42:21.385Z,5.57
2023-05-18T22:44:48.056Z,5.70
2023-05-18T22:47:19.615Z,9.63
2023-05-18T22:49:46.421Z,8.20
2023-05-18T22:52:13.521Z,6.87
2023-05-18T22:54:40.149Z,6.43
2023-05-18T22:57:06.781Z,6.37
2023-05-18T22:59:33.375Z,6.37
2023-05-18T23:02:00.147Z,7.57
2023-05-18T23:04:26.964Z,7.13
2023-05-18T23:06:54.191Z,7.53
2023-05-18T23:09:21.275Z,8.50
2023-05-18T23:11:48.634Z,10.70
2023-05-18T23:14:15.314Z,6.10
2023-05-18T23:16:43.045Z,5.73
2023-05-18T23:19:12.574Z,7.93
2023-05-18T23:21:42.477Z,8.97
2023-05-18T23:24:12.323Z,6.30
2023-05-18T23:26:42.738Z,6.60
2023-05-18T23:29:09.853Z,8.00
2023-05-18T23:31:36.635Z,7.63
2023-05-18T23:34:03.885Z,8.57
2023-05-18T23:36:30.991Z,8.60
2023-05-18T23:38:59.181Z,5.60
2023-05-18T23:41:26.993Z,6.17
2023-05-18T23:43:53.844Z,9.30
2023-05-18T23:46:21.023Z,5.40
2023-05-18T23:48:49.156Z,8.10
2023-05-18T23:51:16.744Z,6.83
2023-05-18T23:53:46.985Z,11.93
2023-05-18T23:56:14.088Z,8.03
2023-05-18T23:58:41.481Z,10.43
